createdAt,value
2022-11-03T00:01:37.642Z,99104.44
2022-11-03T00:04:09.296Z,99107.59
2022-11-03T00:06:36.381Z,99101.78
2022-11-03T00:09:09.377Z,99103.91
2022-11-03T00:11:38.441Z,99102.88
2022-11-03T00:14:06.176Z,99097.00
2022-11-03T00:16:33.729Z,99112.66
2022-11-03T00:19:00.335Z,99100.22
2022-11-03T00:21:27.288Z,99099.97
2022-11-03T00:23:54.099Z,99095.47
2022-11-03T00:26:25.964Z,99103.97
2022-11-03T00:28:57.389Z,99104.22
2022-11-03T00:31:25.257Z,99096.28
2022-11-03T00:33:52.924Z,99100.81
2022-11-03T00:36:22.156Z,99100.56
2022-11-03T00:38:49.418Z,99092.91
2022-11-03T00:41:17.283Z,99100.31
2022-11-03T00:43:43.968Z,99096.34
2022-11-03T00:46:10.883Z,99095.06
2022-11-03T00:48:38.056Z,99102.22
2022-11-03T00:51:13.643Z,99112.31
2022-11-03T00:53:41.301Z,99105.13
2022-11-03T00:56:10.787Z,99108.66
2022-11-03T00:58:37.368Z,99113.41
2022-11-03T01:01:05.891Z,99112.09
2022-11-03T01:03:37.012Z,99109.97
2022-11-03T01:06:25.249Z,99116.34
2022-11-03T01:08:52.421Z,99111.59
2022-11-03T01:11:42.780Z,99110.56
2022-11-03T01:14:14.369Z,99119.59
2022-11-03T01:16:41.548Z,99116.97
2022-11-03T01:19:08.335Z,99122.53
2022-11-03T01:21:35.768Z,99121.72
2022-11-03T01:24:04.354Z,99115.38
2022-11-03T01:26:31.201Z,99107.44
2022-11-03T01:28:59.540Z,99087.84
2022-11-03T01:31:27.860Z,99089.69
2022-11-03T01:33:56.191Z,99083.34
2022-11-03T01:36:23.296Z,99088.66
2022-11-03T01:38:50.096Z,99093.41
2022-11-03T01:41:20.534Z,99080.44
2022-11-03T01:44:08.796Z,99085.19
2022-11-03T01:46:55.254Z,99075.66
2022-11-03T01:49:35.994Z,99083.13
2022-11-03T01:52:11.936Z,99076.75
2022-11-03T01:54:43.109Z,99087.34
2022-11-03T01:57:15.991Z,99085.53
2022-11-03T01:59:43.849Z,99081.81
2022-11-03T02:02:11.372Z,99073.09
2022-11-03T02:04:38.413Z,99078.88
2022-11-03T02:07:30.914Z,99076.25
2022-11-03T02:09:57.425Z,99077.84
2022-11-03T02:12:24.087Z,99079.72
2022-11-03T02:14:58.979Z,99081.81
2022-11-03T02:17:29.130Z,99091.13
2022-11-03T02:20:01.778Z,99084.75
2022-11-03T02:22:40.524Z,99084.22
2022-11-03T02:25:32.298Z,99090.09
2022-11-03T02:27:59.668Z,99085.28
2022-11-03T02:30:37.328Z,99092.72
2022-11-03T02:33:11.099Z,99084.25
2022-11-03T02:35:49.590Z,99079.19
2022-11-03T02:38:20.674Z,99082.13
2022-11-03T02:40:52.974Z,99082.13
2022-11-03T02:43:21.370Z,99060.66
2022-11-03T02:45:50.496Z,99058.03
2022-11-03T02:48:18.234Z,99064.13
2022-11-03T02:50:44.980Z,99064.91
2022-11-03T02:53:12.751Z,99065.97
2022-11-03T02:56:14.050Z,99062.53
2022-11-03T02:59:02.619Z,99055.91
2022-11-03T03:01:49.125Z,99055.16
2022-11-03T03:04:39.259Z,99050.34
2022-11-03T03:07:10.533Z,99049.84
2022-11-03T03:10:02.409Z,99033.41
2022-11-03T03:12:32.465Z,99037.63
2022-11-03T03:15:02.280Z,99046.13
2022-11-03T03:17:45.275Z,99035.00
2022-11-03T03:20:16.858Z,99025.47
2022-11-03T03:22:51.955Z,99027.59
2022-11-03T03:25:37.172Z,99013.53
2022-11-03T03:28:12.012Z,99002.44
2022-11-03T03:30:41.636Z,98987.84
2022-11-03T03:33:10.076Z,98997.63
2022-11-03T03:35:40.747Z,98987.31
2022-11-03T03:38:15.260Z,98986.53
2022-11-03T03:40:46.849Z,98983.34
2022-11-03T03:43:15.023Z,99003.22
2022-11-03T03:45:44.180Z,99004.28
2022-11-03T03:48:12.066Z,98993.69
2022-11-03T03:50:40.232Z,98988.41
2022-11-03T03:53:10.218Z,98996.34
2022-11-03T03:55:40.231Z,98993.69
2022-11-03T03:58:07.680Z,98989.47
2022-11-03T04:00:34.386Z,98984.41
2022-11-03T04:03:00.892Z,98991.28
2022-11-03T04:05:27.921Z,99013.06
2022-11-03T04:07:54.468Z,99006.41
2022-11-03T04:10:22.881Z,99004.81
2022-11-03T04:13:08.221Z,98994.22
2022-11-03T04:15:53.209Z,99007.75
2022-11-03T04:18:40.414Z,98998.75
2022-11-03T04:21:28.792Z,98997.94
2022-11-03T04:23:56.539Z,99006.44
2022-11-03T04:26:23.136Z,99001.13
2022-11-03T04:28:51.605Z,99014.09
2022-11-03T04:31:19.608Z,98987.34
2022-11-03T04:33:47.038Z,98988.97
2022-11-03T04:36:25.726Z,98987.63
2022-11-03T04:38:53.039Z,98982.06
2022-11-03T04:41:29.795Z,98976.50
2022-11-03T04:43:57.162Z,98970.13
2022-11-03T04:46:28.634Z,98972.53
2022-11-03T04:48:59.145Z,98972.81
2022-11-03T04:51:29.753Z,98974.41
2022-11-03T04:54:01.637Z,98982.38
2022-11-03T04:56:29.255Z,98988.97
2022-11-03T04:58:55.880Z,98982.88
2022-11-03T05:01:24.763Z,98983.94
2022-11-03T05:03:54.207Z,98996.91
2022-11-03T05:06:30.152Z,98985.00
2022-11-03T05:08:59.909Z,98983.69
2022-11-03T05:11:34.736Z,98986.09
2022-11-03T05:14:04.512Z,98978.38
2022-11-03T05:16:31.596Z,98980.25
2022-11-03T05:18:58.592Z,98981.03
2022-11-03T05:21:27.236Z,98966.22
2022-11-03T05:24:02.867Z,98978.13
2022-11-03T05:26:34.545Z,98971.78
2022-11-03T05:29:04.648Z,98961.75
2022-11-03T05:31:34.302Z,98948.75
2022-11-03T05:34:03.149Z,98956.16
2022-11-03T05:36:33.117Z,98955.66
2022-11-03T05:39:26.076Z,98945.59
2022-11-03T05:41:52.579Z,98950.34
2022-11-03T05:44:36.985Z,98941.84
2022-11-03T05:47:12.389Z,98935.25
2022-11-03T05:49:38.872Z,98930.47
2022-11-03T05:52:18.430Z,98925.44
2022-11-03T05:54:45.475Z,98927.28
2022-11-03T05:57:14.808Z,98920.66
2022-11-03T05:59:45.561Z,98924.91
2022-11-03T06:02:37.872Z,98917.47
2022-11-03T06:05:34.474Z,98920.66
2022-11-03T06:08:11.120Z,98928.06
2022-11-03T06:10:41.484Z,98923.56
2022-11-03T06:13:16.077Z,98911.09
2022-11-03T06:15:45.804Z,98911.63
2022-11-03T06:18:21.664Z,98911.09
2022-11-03T06:20:54.653Z,98923.03
2022-11-03T06:23:21.693Z,98918.78
2022-11-03T06:25:50.153Z,98919.59
2022-11-03T06:28:20.898Z,98930.69
2022-11-03T06:30:48.695Z,98921.69
2022-11-03T06:33:24.821Z,98917.75
2022-11-03T06:35:54.518Z,98917.47
2022-11-03T06:38:27.067Z,98920.13
2022-11-03T06:40:53.872Z,98911.66
2022-11-03T06:43:24.862Z,98914.31
2022-11-03T06:45:54.782Z,98917.22
2022-11-03T06:48:25.188Z,98923.59
2022-11-03T06:50:52.210Z,98918.00
2022-11-03T06:53:25.461Z,98916.97
2022-11-03T06:55:52.048Z,98913.53
2022-11-03T06:58:31.374Z,98913.28
2022-11-03T07:01:03.674Z,98909.84
2022-11-03T07:03:33.630Z,98912.75
2022-11-03T07:06:05.021Z,98907.72
2022-11-03T07:08:36.267Z,98902.69
2022-11-03T07:11:12.288Z,98910.09
2022-11-03T07:13:38.909Z,98907.44
2022-11-03T07:16:16.210Z,98905.09
2022-11-03T07:18:47.913Z,98905.63
2022-11-03T07:21:36.219Z,98910.91
2022-11-03T07:24:18.487Z,98908.25
2022-11-03T07:26:45.064Z,98910.63
2022-11-03T07:29:21.956Z,98911.19
2022-11-03T07:31:51.580Z,98899.78
2022-11-03T07:34:24.923Z,98906.69
2022-11-03T07:36:55.585Z,98913.28
2022-11-03T07:39:22.836Z,98907.44
2022-11-03T07:41:50.840Z,98912.25
2022-11-03T07:44:23.472Z,98913.81
2022-11-03T07:46:50.770Z,98915.13
2022-11-03T07:49:27.038Z,98904.00
2022-11-03T07:51:55.142Z,98908.75
2022-11-03T07:54:34.348Z,98914.06
2022-11-03T07:57:08.663Z,98910.09
2022-11-03T07:59:43.847Z,98916.44
2022-11-03T08:02:28.939Z,98910.06
2022-11-03T08:04:55.438Z,98913.25
2022-11-03T08:07:22.008Z,98912.97
2022-11-03T08:09:48.619Z,98903.41
2022-11-03T08:12:15.126Z,98908.16
2022-11-03T08:14:41.617Z,98906.84
2022-11-03T08:17:08.143Z,98903.91
2022-11-03T08:19:34.646Z,98915.81
2022-11-03T08:22:01.117Z,98912.63
2022-11-03T08:24:27.881Z,98909.97
2022-11-03T08:26:54.720Z,98914.72
2022-11-03T08:29:21.443Z,98921.63
2022-11-03T08:31:47.956Z,98916.03
2022-11-03T08:34:14.458Z,98914.69
2022-11-03T08:36:41.029Z,98905.69
2022-11-03T08:39:07.599Z,98917.59
2022-11-03T08:41:34.174Z,98913.59
2022-11-03T08:44:00.679Z,98906.19
2022-11-03T08:46:27.509Z,98902.75
2022-11-03T08:48:54.458Z,98914.09
2022-11-03T08:51:21.001Z,98913.00
2022-11-03T08:53:50.751Z,98908.25
2022-11-03T08:56:20.416Z,98900.78
2022-11-03T08:58:48.816Z,98897.09
2022-11-03T09:01:15.601Z,98901.81
2022-11-03T09:03:42.496Z,98890.19
2022-11-03T09:06:09.292Z,98894.13
2022-11-03T09:11:22.455Z,98876.88
2022-11-03T09:13:48.989Z,98871.03
2022-11-03T09:16:15.624Z,98873.09
2022-11-03T09:18:42.299Z,98863.03
2022-11-03T09:21:09.048Z,98856.38
2022-11-03T09:23:35.586Z,98861.41
2022-11-03T09:26:02.134Z,98844.16
2022-11-03T09:28:28.636Z,98849.97
2022-11-03T09:30:55.156Z,98841.44
2022-11-03T09:33:21.790Z,98831.09
2022-11-03T09:35:48.332Z,98828.13
2022-11-03T09:38:14.838Z,98833.97
2022-11-03T09:40:41.407Z,98841.09
2022-11-03T09:43:08.604Z,98839.72
2022-11-03T09:45:35.390Z,98834.94
2022-11-03T09:48:02.372Z,98844.69
2022-11-03T09:50:29.007Z,98850.53
2022-11-03T09:52:56.667Z,98845.19
2022-11-03T09:55:27.413Z,98849.38
2022-11-03T09:58:13.844Z,98857.78
2022-11-03T10:00:40.633Z,98860.63
2022-11-03T10:03:11.457Z,98855.78
2022-11-03T10:05:39.881Z,98858.34
2022-11-03T10:08:11.944Z,98857.72
2022-11-03T10:10:40.234Z,98857.31
2022-11-03T10:13:12.461Z,98851.38
2022-11-03T10:15:39.629Z,98839.81
2022-11-03T10:18:06.284Z,98848.19
2022-11-03T10:20:32.888Z,98848.84
2022-11-03T10:22:59.471Z,98848.72
2022-11-03T10:25:30.464Z,98852.28
2022-11-03T10:28:19.024Z,98864.38
2022-11-03T10:31:14.260Z,98862.63
2022-11-03T10:34:01.372Z,98864.41
2022-11-03T10:36:33.292Z,98851.34
2022-11-03T10:39:01.882Z,98850.19
2022-11-03T10:41:30.797Z,98841.44
2022-11-03T10:44:01.850Z,98837.31
2022-11-03T10:46:49.101Z,98834.38
2022-11-03T10:49:18.509Z,98821.06
2022-11-03T10:51:53.216Z,98827.38
2022-11-03T10:54:24.219Z,98820.44
2022-11-03T10:56:52.312Z,98817.97
2022-11-03T10:59:33.406Z,98829.31
2022-11-03T11:02:01.131Z,98839.09
2022-11-03T11:04:28.211Z,98831.03
2022-11-03T11:06:55.081Z,98832.22
2022-11-03T11:09:26.785Z,98834.53
2022-11-03T11:12:01.243Z,98830.88
2022-11-03T11:14:30.634Z,98825.19
2022-11-03T11:17:01.604Z,98833.47
2022-11-03T11:19:29.491Z,98828.44
2022-11-03T11:21:55.943Z,98829.63
2022-11-03T11:24:44.264Z,98815.63
2022-11-03T11:27:32.749Z,98805.63
2022-11-03T11:30:00.782Z,98803.19
2022-11-03T11:32:39.359Z,98787.38
2022-11-03T11:35:10.486Z,98794.28
2022-11-03T11:37:38.441Z,98802.78
2022-11-03T11:40:17.182Z,98810.47
2022-11-03T11:43:07.459Z,98806.72
2022-11-03T11:46:11.978Z,98800.31
2022-11-03T11:48:38.472Z,98802.19
2022-11-03T11:51:09.289Z,98807.53
2022-11-03T11:53:43.104Z,98798.91
2022-11-03T11:56:12.783Z,98800.97
2022-11-03T11:58:43.814Z,98788.94
2022-11-03T12:01:33.151Z,98792.09
2022-11-03T12:04:05.999Z,98787.69
2022-11-03T12:06:37.910Z,98788.50
2022-11-03T12:09:15.351Z,98790.88
2022-11-03T12:11:46.058Z,98788.19
2022-11-03T12:14:28.790Z,98786.47
2022-11-03T12:16:59.841Z,98784.03
2022-11-03T12:19:46.768Z,98783.13
2022-11-03T12:22:26.223Z,98780.66
2022-11-03T12:25:04.263Z,98777.56
2022-11-03T12:27:30.741Z,98774.94
2022-11-03T12:29:59.881Z,98769.09
2022-11-03T12:32:33.552Z,98763.81
2022-11-03T12:35:02.349Z,98774.22
2022-11-03T12:37:28.987Z,98767.25
2022-11-03T12:39:55.749Z,98764.09
2022-11-03T12:42:24.755Z,98768.91
2022-11-03T12:44:51.831Z,98761.81
2022-11-03T12:47:18.343Z,98767.16
2022-11-03T12:49:44.845Z,98766.03
2022-11-03T12:52:11.438Z,98770.31
2022-11-03T12:54:37.974Z,98770.13
2022-11-03T12:57:04.434Z,98763.66
2022-11-03T12:59:31.418Z,98763.19
2022-11-03T13:01:57.960Z,98760.22
2022-11-03T13:04:24.587Z,98757.56
2022-11-03T13:06:51.123Z,98752.03
2022-11-03T13:09:17.625Z,98757.56
2022-11-03T13:12:02.948Z,98751.25
2022-11-03T13:14:29.473Z,98747.91
2022-11-03T13:16:55.969Z,98749.47
2022-11-03T13:19:22.573Z,98745.13
2022-11-03T13:21:49.045Z,98742.06
2022-11-03T13:24:15.720Z,98744.97
2022-11-03T13:26:42.209Z,98733.69
2022-11-03T13:29:08.723Z,98733.25
2022-11-03T13:31:35.823Z,98730.16
2022-11-03T13:34:02.373Z,98736.88
2022-11-03T13:36:28.900Z,98730.03
2022-11-03T13:38:55.373Z,98731.69
2022-11-03T13:41:21.867Z,98721.47
2022-11-03T13:43:48.371Z,98730.03
2022-11-03T13:46:14.864Z,98725.31
2022-11-03T13:51:27.863Z,98735.00
2022-11-03T13:59:28.288Z,98725.56
2022-11-03T14:04:43.062Z,98717.53
2022-11-03T14:07:10.395Z,98717.66
2022-11-03T14:12:26.997Z,98717.34
2022-11-03T14:14:53.518Z,98719.41
2022-11-03T14:17:20.085Z,98719.25
2022-11-03T14:19:52.029Z,98725.53
2022-11-03T14:22:20.651Z,98713.41
2022-11-03T14:24:47.196Z,98717.34
2022-11-03T14:27:15.696Z,98716.69
2022-11-03T14:29:43.789Z,98704.09
2022-11-03T14:32:11.828Z,98701.59
2022-11-03T14:34:38.628Z,98702.38
2022-11-03T14:37:06.156Z,98707.38
2022-11-03T14:39:32.771Z,98710.50
2022-11-03T14:42:05.462Z,98706.09
2022-11-03T14:44:36.992Z,98713.75
2022-11-03T14:47:05.492Z,98702.44
2022-11-03T14:49:33.162Z,98708.22
2022-11-03T14:52:01.789Z,98696.13
2022-11-03T14:54:30.115Z,98703.16
2022-11-03T14:56:57.492Z,98717.44
2022-11-03T14:59:24.360Z,98714.25
2022-11-03T15:01:51.846Z,98712.19
2022-11-03T15:04:18.718Z,98716.47
2022-11-03T15:06:45.562Z,98704.19
2022-11-03T15:09:15.598Z,98705.78
2022-11-03T15:11:43.488Z,98715.03
2022-11-03T15:14:10.834Z,98715.03
2022-11-03T15:16:37.759Z,98706.84
2022-11-03T15:19:05.776Z,98698.38
2022-11-03T15:21:32.932Z,98704.34
2022-11-03T15:26:45.904Z,98701.63
2022-11-03T15:29:12.383Z,98697.50
2022-11-03T15:31:39.331Z,98704.88
2022-11-03T15:34:08.758Z,98704.84
2022-11-03T15:36:35.801Z,98706.81
2022-11-03T15:39:02.336Z,98698.00
2022-11-03T15:41:28.976Z,98710.97
2022-11-03T15:43:55.468Z,98711.41
2022-11-03T15:46:21.940Z,98722.78
2022-11-03T15:48:49.337Z,98723.22
2022-11-03T15:51:16.214Z,98720.50
2022-11-03T15:53:43.818Z,98719.63
2022-11-03T15:56:10.670Z,98717.88
2022-11-03T15:58:37.677Z,98714.00
2022-11-03T16:01:04.688Z,98721.03
2022-11-03T16:03:32.009Z,98724.59
2022-11-03T16:05:59.145Z,98732.72
2022-11-03T16:08:25.986Z,98730.16
2022-11-03T16:10:57.587Z,98736.88
2022-11-03T16:13:25.267Z,98735.91
2022-11-03T16:15:54.407Z,98728.63
2022-11-03T16:18:21.504Z,98737.59
2022-11-03T16:20:48.045Z,98731.88
2022-11-03T16:23:14.588Z,98730.59
2022-11-03T16:25:41.163Z,98725.78
2022-11-03T16:28:08.033Z,98726.47
2022-11-03T16:30:35.436Z,98732.78
2022-11-03T16:33:01.991Z,98733.47
2022-11-03T16:35:29.678Z,98729.63
2022-11-03T16:37:56.631Z,98730.22
2022-11-03T16:40:23.724Z,98727.34
2022-11-03T16:42:50.431Z,98731.19
2022-11-03T16:45:20.437Z,98732.38
2022-11-03T16:47:48.088Z,98727.97
2022-11-03T16:50:16.249Z,98729.16
2022-11-03T16:52:43.547Z,98722.72
2022-11-03T16:55:11.857Z,98731.09
2022-11-03T16:57:39.530Z,98727.00
2022-11-03T17:00:08.682Z,98728.25
2022-11-03T17:02:35.311Z,98736.31
2022-11-03T17:05:01.864Z,98729.47
2022-11-03T17:07:28.357Z,98729.03
2022-11-03T17:09:54.898Z,98722.25
2022-11-03T17:12:21.387Z,98724.47
2022-11-03T17:14:51.207Z,98722.94
2022-11-03T17:17:20.579Z,98733.38
2022-11-03T17:19:47.108Z,98737.66
2022-11-03T17:22:13.740Z,98735.88
2022-11-03T17:24:40.237Z,98735.97
2022-11-03T17:27:15.784Z,98737.38
2022-11-03T17:29:49.599Z,98745.44
2022-11-03T17:32:30.720Z,98748.41
2022-11-03T17:35:00.310Z,98753.81
2022-11-03T17:37:27.924Z,98756.75
2022-11-03T17:39:56.524Z,98757.38
2022-11-03T17:42:28.398Z,98752.72
2022-11-03T17:44:56.920Z,98753.03
2022-11-03T17:47:24.375Z,98759.72
2022-11-03T17:49:51.564Z,98760.06
2022-11-03T17:52:28.059Z,98760.97
2022-11-03T17:54:57.349Z,98759.44
2022-11-03T17:57:25.726Z,98769.00
2022-11-03T17:59:55.983Z,98779.69
2022-11-03T18:02:25.751Z,98779.22
2022-11-03T18:05:15.355Z,98770.53
2022-11-03T18:07:45.427Z,98768.19
2022-11-03T18:10:11.980Z,98765.31
2022-11-03T18:13:02.240Z,98774.34
2022-11-03T18:15:31.489Z,98772.31
2022-11-03T18:17:58.132Z,98780.53
2022-11-03T18:20:29.207Z,98774.78
2022-11-03T18:23:08.808Z,98778.19
2022-11-03T18:25:35.367Z,98780.63
2022-11-03T18:28:01.864Z,98781.75
2022-11-03T18:30:28.568Z,98784.44
2022-11-03T18:32:55.039Z,98789.25
2022-11-03T18:35:23.639Z,98787.19
2022-11-03T18:37:50.975Z,98792.63
2022-11-03T18:40:20.253Z,98794.75
2022-11-03T18:42:46.793Z,98799.00
2022-11-03T18:45:15.951Z,98801.97
2022-11-03T18:47:43.278Z,98800.69
2022-11-03T18:50:14.154Z,98803.59
2022-11-03T18:52:43.418Z,98808.13
2022-11-03T18:55:13.264Z,98807.34
2022-11-03T18:57:40.029Z,98804.19
2022-11-03T19:00:27.044Z,98813.22
2022-11-03T19:02:53.560Z,98807.13
2022-11-03T19:05:20.198Z,98819.88
2022-11-03T19:07:50.099Z,98806.66
2022-11-03T19:10:21.934Z,98804.56
2022-11-03T19:12:48.610Z,98815.41
2022-11-03T19:15:20.214Z,98823.88
2022-11-03T19:17:49.287Z,98825.72
2022-11-03T19:20:16.443Z,98830.50
2022-11-03T19:22:42.997Z,98827.88
2022-11-03T19:25:09.584Z,98822.06
2022-11-03T19:27:41.240Z,98822.06
2022-11-03T19:30:12.123Z,98823.69
2022-11-03T19:32:54.159Z,98832.13
2022-11-03T19:35:23.828Z,98836.88
2022-11-03T19:38:00.956Z,98840.03
2022-11-03T19:40:28.562Z,98836.88
2022-11-03T19:42:55.567Z,98837.69
2022-11-03T19:45:24.049Z,98841.63
2022-11-03T19:48:18.338Z,98834.75
2022-11-03T19:50:44.448Z,98836.59
2022-11-03T19:53:16.341Z,98836.34
2022-11-03T19:55:42.885Z,98849.00
2022-11-03T19:58:12.150Z,98844.22
2022-11-03T20:00:38.732Z,98853.75
2022-11-03T20:03:05.244Z,98853.22
2022-11-03T20:05:31.750Z,98857.44
2022-11-03T20:08:03.625Z,98850.56
2022-11-03T20:10:33.301Z,98855.34
2022-11-03T20:13:02.827Z,98857.44
2022-11-03T20:15:29.348Z,98860.06
2022-11-03T20:17:55.818Z,98865.34
2022-11-03T20:20:26.504Z,98867.22
2022-11-03T20:22:57.380Z,98868.53
2022-11-03T20:25:27.324Z,98864.56
2022-11-03T20:27:58.540Z,98866.94
2022-11-03T20:30:26.762Z,98879.09
2022-11-03T20:32:53.876Z,98870.41
2022-11-03T20:35:24.576Z,98882.53
2022-11-03T20:37:55.024Z,98873.78
2022-11-03T20:40:24.434Z,98872.47
2022-11-03T20:42:55.971Z,98874.34
2022-11-03T20:45:24.000Z,98878.56
2022-11-03T20:47:51.004Z,98884.84
2022-11-03T20:50:20.058Z,98870.00
2022-11-03T20:52:47.418Z,98881.63
2022-11-03T20:55:15.709Z,98887.19
2022-11-03T20:57:42.709Z,98895.34
2022-11-03T21:00:15.950Z,98898.50
2022-11-03T21:02:43.758Z,98898.22
2022-11-03T21:05:14.599Z,98893.47
2022-11-03T21:07:41.417Z,98906.38
2022-11-03T21:10:08.171Z,98906.88
2022-11-03T21:12:34.811Z,98913.22
2022-11-03T21:15:20.248Z,98913.72
2022-11-03T21:18:05.153Z,98919.50
2022-11-03T21:20:32.911Z,98923.47
2022-11-03T21:23:00.040Z,98927.63
2022-11-03T21:25:26.533Z,98935.78
2022-11-03T21:27:54.120Z,98937.88
2022-11-03T21:30:21.588Z,98938.91
2022-11-03T21:32:48.193Z,98946.03
2022-11-03T21:35:17.672Z,98942.59
2022-11-03T21:37:44.178Z,98962.63
2022-11-03T21:40:11.510Z,98967.59
2022-11-03T21:42:57.005Z,98964.69
2022-11-03T21:45:23.532Z,98975.72
2022-11-03T21:48:13.579Z,98978.84
2022-11-03T21:50:41.385Z,98991.50
2022-11-03T21:53:08.413Z,98987.03
2022-11-03T21:55:35.408Z,98983.03
2022-11-03T21:58:03.110Z,99000.97
2022-11-03T22:00:31.922Z,99000.41
2022-11-03T22:03:01.668Z,99000.63
2022-11-03T22:05:28.903Z,99014.06
2022-11-03T22:07:55.433Z,99012.47
2022-11-03T22:10:22.163Z,99016.16
2022-11-03T22:12:48.785Z,99009.25
2022-11-03T22:15:34.114Z,99008.47
2022-11-03T22:18:05.622Z,99020.84
2022-11-03T22:20:51.483Z,99026.88
2022-11-03T22:23:40.855Z,99034.22
2022-11-03T22:26:35.355Z,99040.53
2022-11-03T22:29:20.797Z,99040.47
2022-11-03T22:31:47.471Z,99057.88
2022-11-03T22:34:32.681Z,99055.47
2022-11-03T22:36:59.904Z,99053.38
2022-11-03T22:39:45.245Z,99050.97
2022-11-03T22:42:38.942Z,99058.06
2022-11-03T22:45:31.977Z,99058.03
2022-11-03T22:47:58.482Z,99064.38
2022-11-03T22:50:25.118Z,99058.81
2022-11-03T22:52:51.658Z,99061.44
2022-11-03T22:55:18.167Z,99055.63
2022-11-03T22:57:44.626Z,99064.34
2022-11-03T23:00:13.434Z,99076.69
2022-11-03T23:02:40.153Z,99087.19
2022-11-03T23:05:07.131Z,99083.75
2022-11-03T23:07:40.808Z,99087.94
2022-11-03T23:10:08.454Z,99099.25
2022-11-03T23:12:34.940Z,99093.19
2022-11-03T23:15:20.258Z,99094.78
2022-11-03T23:18:05.115Z,99100.53
2022-11-03T23:20:49.996Z,99100.25
2022-11-03T23:23:36.594Z,99109.47
2022-11-03T23:26:03.350Z,99107.09
2022-11-03T23:28:30.012Z,99100.78
2022-11-03T23:30:56.515Z,99112.13
2022-11-03T23:33:23.012Z,99112.13
2022-11-03T23:35:49.489Z,99112.59
2022-11-03T23:38:15.980Z,99122.66
2022-11-03T23:40:42.683Z,99123.44
2022-11-03T23:43:09.131Z,99127.63
2022-11-03T23:45:55.049Z,99123.97
2022-11-03T23:48:40.052Z,99132.66
2022-11-03T23:51:06.586Z,99138.72
2022-11-03T23:53:33.336Z,99143.41
2022-11-03T23:56:18.917Z,99132.88
2022-11-03T23:58:49.256Z,99144.47
